Etusivu
METAR-TAF:

METAR-TAF

Lentoasemat :

Miami, Florida, Yhdysvallat

Miamin kansainvälinen lentoasema

Leveyspiiri: 25-47-26N, Pituuspiiri: 080-18-59W, korkeus merenpinnasta: 3 m

Tämänhetkinen sää

Tämä raportti tehtiin 41 minuuttia sitten, kello 10.53 UTC
Tuuli 8 kn pohjoisen/luoteesta
Lämpötila 11°C
Kosteus 66%
Ilmanpaine 1025 hPa
Näkyvyys: 16.1 km
selkeää

METAR: KMIA 111053Z 34008KT 10SM CLR 11/05 A3026 RMK AO2 SLP246 T01110050 $

Aika: 06:34 (11:34 UTC)

Sääennuste

Tämä raportti tehtiin 2 tuntia ja 42 minuuttia sitten, kello 08.52 UTC
Ennuste voimassa 11. päivästä klo 09 UTC - 12. päivään klo 12 UTC
Tuuli 5 kn luoteesta
Näkyvyys: 10 km
Muutamia pilviä 3000 ft:n korkeudessa
From 11. päivästä klo 1500 UTC
Tuuli 8 kn pohjoisesta
Näkyvyys: 10 km
selkeää
From 11. päivästä klo 2000 UTC
Tuuli 3 kn eri suunnista
Näkyvyys: 10 km
Hajanaisia pilviä 3000 ft:n korkeudessa

TAF: KMIA 110852Z 1109/1212 32005KT P6SM FEW030 FM111500 35008KT P6SM SKC FM112000 VRB03KT P6SM SCT030

Säähavainnot ja -ennusteet yli 4000 lentoasemalta (METAR- ja TAF-raportit).

Käytössä olevat sääasemat on merkitty karttaan keltaisilla ja punaisilla pisteillä.

Aseta hiiri pisteen päälle nähdäksesi sääaseman nimen.

Klikkaa sitten nähdäksesi säähavainnot ja -ennusteet.

Kartan vaihtaminen: klikkaa mustalla rastilla varustettuja vihreitä pisteitä, niin voit zoomata sisään; viivalla varustettua vihreää pistettä, niin voit zoomata ulos tai vihreitä nuolia, niin pääset viereisille kartoille.


METAR-TAF: